createdAt,value
2022-10-04T00:01:09.260Z,100613.59
2022-10-04T00:03:42.895Z,100607.19
2022-10-04T00:06:17.469Z,100616.50
2022-10-04T00:08:51.716Z,100622.63
2022-10-04T00:11:26.743Z,100609.63
2022-10-04T00:13:58.596Z,100612.63
2022-10-04T00:16:31.324Z,100615.94
2022-10-04T00:19:23.394Z,100618.75
2022-10-04T00:22:12.683Z,100615.56
2022-10-04T00:25:21.207Z,100620.69
2022-10-04T00:28:25.313Z,100614.72
2022-10-04T00:31:16.447Z,100613.53
2022-10-04T00:33:45.759Z,100615.84
2022-10-04T00:36:45.642Z,100618.16
2022-10-04T00:39:33.948Z,100614.94
2022-10-04T00:42:13.605Z,100613.44
2022-10-04T00:44:50.467Z,100613.81
2022-10-04T00:47:31.885Z,100608.69
2022-10-04T00:50:06.951Z,100617.34
2022-10-04T00:52:38.225Z,100611.94
2022-10-04T00:55:10.597Z,100606.94
2022-10-04T00:57:43.659Z,100618.31
2022-10-04T01:00:16.304Z,100606.03
2022-10-04T01:02:54.253Z,100601.28
2022-10-04T01:05:26.614Z,100600.53
2022-10-04T01:07:58.356Z,100605.09
2022-10-04T01:10:29.887Z,100607.59
2022-10-04T01:13:05.828Z,100599.91
2022-10-04T01:15:42.901Z,100602.94
2022-10-04T01:18:15.711Z,100605.00
2022-10-04T01:20:53.967Z,100607.88
2022-10-04T01:23:51.450Z,100609.25
2022-10-04T01:26:40.918Z,100615.94
2022-10-04T01:29:12.561Z,100612.59
2022-10-04T01:31:43.332Z,100614.00
2022-10-04T01:34:14.626Z,100616.50
2022-10-04T01:36:42.907Z,100606.66
2022-10-04T01:39:12.631Z,100612.81
2022-10-04T01:41:52.377Z,100610.19
2022-10-04T01:44:29.256Z,100602.28
2022-10-04T01:47:00.645Z,100613.25
2022-10-04T01:49:32.677Z,100626.22
2022-10-04T01:52:04.459Z,100632.63
2022-10-04T01:54:37.223Z,100631.22
2022-10-04T01:57:12.439Z,100636.38
2022-10-04T01:59:46.110Z,100647.19
2022-10-04T02:02:25.538Z,100650.63
2022-10-04T02:04:56.913Z,100635.22
2022-10-04T02:07:28.371Z,100645.06
2022-10-04T02:10:00.797Z,100639.47
2022-10-04T02:12:31.485Z,100638.19
2022-10-04T02:15:02.424Z,100643.19
2022-10-04T02:17:32.965Z,100643.41
2022-10-04T02:20:03.123Z,100638.59
2022-10-04T02:22:31.786Z,100646.72
2022-10-04T02:25:02.013Z,100647.84
2022-10-04T02:27:31.448Z,100644.88
2022-10-04T02:30:03.889Z,100647.22
2022-10-04T02:32:51.293Z,100655.28
2022-10-04T02:35:20.902Z,100606.34
2022-10-04T02:37:52.666Z,100658.66
2022-10-04T02:40:29.057Z,100673.00
2022-10-04T02:43:01.542Z,100676.25
2022-10-04T02:45:38.521Z,100681.38
2022-10-04T02:48:19.554Z,100647.38
2022-10-04T02:50:50.290Z,100681.69
2022-10-04T02:53:22.954Z,100673.56
2022-10-04T02:55:52.583Z,100681.69
2022-10-04T02:58:24.628Z,100676.97
2022-10-04T03:00:57.649Z,100684.81
2022-10-04T03:03:28.800Z,100682.06
2022-10-04T03:06:02.607Z,100685.22
2022-10-04T03:08:33.170Z,100690.69
2022-10-04T03:11:05.535Z,100687.06
2022-10-04T03:13:34.609Z,100692.06
2022-10-04T03:16:02.832Z,100692.63
2022-10-04T03:18:32.243Z,100693.09
2022-10-04T03:21:03.608Z,100690.59
2022-10-04T03:23:33.484Z,100691.34
2022-10-04T03:26:07.971Z,100695.69
2022-10-04T03:28:38.658Z,100709.78
2022-10-04T03:31:07.328Z,100714.44
2022-10-04T03:33:35.550Z,100711.94
2022-10-04T03:36:04.283Z,100705.72
2022-10-04T03:38:35.800Z,100706.31
2022-10-04T03:41:05.589Z,100713.19
2022-10-04T03:43:38.452Z,100715.47
2022-10-04T03:46:09.499Z,100717.56
2022-10-04T03:48:40.842Z,100716.81
2022-10-04T03:51:14.645Z,100726.69
2022-10-04T03:53:46.490Z,100716.84
2022-10-04T03:56:20.142Z,100726.00
2022-10-04T03:58:50.634Z,100722.72
2022-10-04T04:01:27.915Z,100722.44
2022-10-04T04:04:02.325Z,100728.00
2022-10-04T04:06:40.902Z,100723.41
2022-10-04T04:09:10.244Z,100735.66
2022-10-04T04:11:39.726Z,100730.88
2022-10-04T04:14:13.866Z,100738.94
2022-10-04T04:16:42.171Z,100741.94
2022-10-04T04:19:14.517Z,100746.22
2022-10-04T04:21:43.132Z,100744.31
2022-10-04T04:24:23.164Z,100742.38
2022-10-04T04:26:57.670Z,100749.25
2022-10-04T04:29:32.913Z,100737.13
2022-10-04T04:32:05.033Z,100738.19
2022-10-04T04:34:35.618Z,100743.03
2022-10-04T04:37:05.817Z,100751.25
2022-10-04T04:39:41.141Z,100752.09
2022-10-04T04:42:18.218Z,100754.84
2022-10-04T04:44:51.698Z,100764.06
2022-10-04T04:47:32.434Z,100767.09
2022-10-04T04:50:06.330Z,100774.94
2022-10-04T04:52:36.106Z,100773.25
2022-10-04T04:55:05.468Z,100777.97
2022-10-04T04:57:35.163Z,100776.91
2022-10-04T05:00:03.818Z,100782.66
2022-10-04T05:02:35.255Z,100791.19
2022-10-04T05:05:22.138Z,100785.34
2022-10-04T05:07:50.293Z,100788.13
2022-10-04T05:10:32.313Z,100801.38
2022-10-04T05:13:04.353Z,100801.97
2022-10-04T05:15:35.826Z,100811.31
2022-10-04T05:18:17.813Z,100818.13
2022-10-04T05:20:50.757Z,100815.25
2022-10-04T05:23:18.797Z,100818.78
2022-10-04T05:25:47.107Z,100825.94
2022-10-04T05:28:18.342Z,100831.34
2022-10-04T05:31:01.638Z,100834.22
2022-10-04T05:33:39.722Z,100840.91
2022-10-04T05:36:42.825Z,100840.81
2022-10-04T05:39:20.535Z,100839.53
2022-10-04T05:41:55.166Z,100845.88
2022-10-04T05:44:28.486Z,100849.94
2022-10-04T05:46:58.692Z,100848.72
2022-10-04T05:49:29.533Z,100853.25
2022-10-04T05:52:01.094Z,100847.94
2022-10-04T05:54:32.955Z,100851.25
2022-10-04T05:57:19.295Z,100856.28
2022-10-04T06:00:07.896Z,100859.09
2022-10-04T06:02:54.560Z,100863.72
2022-10-04T06:05:29.302Z,100866.94
2022-10-04T06:08:02.990Z,100870.41
2022-10-04T06:10:53.738Z,100877.50
2022-10-04T06:13:39.860Z,100879.94
2022-10-04T06:16:21.285Z,100880.88
2022-10-04T06:19:09.637Z,100882.25
2022-10-04T06:21:56.945Z,100879.56
2022-10-04T06:24:28.614Z,100886.75
2022-10-04T06:27:02.541Z,100904.00
2022-10-04T06:29:34.977Z,100899.88
2022-10-04T06:32:34.358Z,100904.72
2022-10-04T06:35:34.038Z,100911.41
2022-10-04T06:38:32.129Z,100907.25
2022-10-04T06:41:24.638Z,100913.59
2022-10-04T06:44:12.581Z,100918.84
2022-10-04T06:46:48.089Z,100925.41
2022-10-04T06:49:40.295Z,100934.13
2022-10-04T06:52:35.325Z,100933.63
2022-10-04T06:55:33.290Z,100929.78
2022-10-04T06:58:25.486Z,100937.34
2022-10-04T07:00:58.220Z,100936.69
2022-10-04T07:03:32.170Z,100943.44
2022-10-04T07:06:05.879Z,100946.72
2022-10-04T07:08:39.921Z,100945.66
2022-10-04T07:11:15.499Z,100953.91
2022-10-04T07:13:52.405Z,100942.44
2022-10-04T07:16:41.369Z,100954.34
2022-10-04T07:19:24.998Z,100955.28
2022-10-04T07:22:02.298Z,100954.13
2022-10-04T07:24:43.152Z,100960.06
2022-10-04T07:27:17.819Z,100964.34
2022-10-04T07:29:46.842Z,100963.09
2022-10-04T07:32:19.272Z,100971.88
2022-10-04T07:34:53.849Z,100973.06
2022-10-04T07:37:24.173Z,100968.97
2022-10-04T07:39:58.343Z,100958.06
2022-10-04T07:42:31.020Z,100960.22
2022-10-04T07:45:12.018Z,100963.50
2022-10-04T07:47:40.174Z,100967.66
2022-10-04T07:50:29.450Z,100964.84
2022-10-04T07:53:09.842Z,100963.19
2022-10-04T07:55:46.921Z,100967.09
2022-10-04T07:58:28.433Z,100953.97
2022-10-04T08:01:00.029Z,100965.53
2022-10-04T08:03:56.594Z,100963.94
2022-10-04T08:06:34.880Z,100977.09
2022-10-04T08:09:29.711Z,100979.16
2022-10-04T08:12:06.573Z,100973.88
2022-10-04T08:14:50.643Z,100975.69
2022-10-04T08:17:29.107Z,100977.56
2022-10-04T08:20:04.950Z,100975.44
2022-10-04T08:22:51.326Z,100976.34
2022-10-04T08:25:26.194Z,100981.66
2022-10-04T08:28:22.146Z,100980.16
2022-10-04T08:31:10.298Z,100981.59
2022-10-04T08:33:58.430Z,100975.41
2022-10-04T08:36:40.928Z,100985.69
2022-10-04T08:39:23.426Z,100988.38
2022-10-04T08:42:30.525Z,100989.25
2022-10-04T08:45:48.165Z,100992.50
2022-10-04T08:49:01.216Z,100994.53
2022-10-04T08:52:05.377Z,100993.13
2022-10-04T08:55:13.164Z,100995.63
2022-10-04T08:58:06.035Z,100999.22
2022-10-04T09:00:51.725Z,100998.06
2022-10-04T09:03:47.587Z,100997.13
2022-10-04T09:06:31.170Z,101001.84
2022-10-04T09:09:46.951Z,100994.34
2022-10-04T09:12:35.360Z,100993.53
2022-10-04T09:15:31.479Z,100983.16
2022-10-04T09:18:09.801Z,100993.41
2022-10-04T09:20:51.933Z,100985.78
2022-10-04T09:23:45.395Z,100979.41
2022-10-04T09:26:23.244Z,100993.69
2022-10-04T09:29:39.150Z,100987.16
2022-10-04T09:32:55.826Z,100992.72
2022-10-04T09:35:56.978Z,100994.19
2022-10-04T09:39:28.878Z,100992.44
2022-10-04T09:42:28.975Z,100990.50
2022-10-04T09:45:27.565Z,100999.22
2022-10-04T09:48:09.226Z,100981.91
2022-10-04T09:51:01.042Z,100993.16
2022-10-04T09:53:57.325Z,100983.56
2022-10-04T09:56:50.756Z,100992.19
2022-10-04T09:59:42.037Z,101001.63
2022-10-04T10:02:47.958Z,100997.72
2022-10-04T10:05:32.583Z,100986.63
2022-10-04T10:08:12.259Z,100992.03
2022-10-04T10:11:09.440Z,100994.94
2022-10-04T10:14:04.945Z,100988.16
2022-10-04T10:16:50.050Z,100991.47
2022-10-04T10:19:47.733Z,100985.34
2022-10-04T10:22:46.124Z,100988.06
2022-10-04T10:25:28.822Z,100986.25
2022-10-04T10:28:24.210Z,100989.28
2022-10-04T10:31:09.371Z,100994.94
2022-10-04T10:34:11.025Z,100979.59
2022-10-04T10:36:53.771Z,100991.69
2022-10-04T10:39:49.838Z,100960.06
2022-10-04T10:42:57.901Z,100984.00
2022-10-04T10:45:45.878Z,100996.69
2022-10-04T10:48:19.003Z,100991.31
2022-10-04T10:51:03.862Z,100989.75
2022-10-04T10:54:17.122Z,100990.28
2022-10-04T10:56:56.842Z,100991.25
2022-10-04T11:00:11.876Z,100988.94
2022-10-04T11:03:11.789Z,100986.22
2022-10-04T11:06:25.231Z,100983.75
2022-10-04T11:09:38.750Z,100986.00
2022-10-04T11:12:42.141Z,100992.13
2022-10-04T11:15:40.811Z,100989.38
2022-10-04T11:18:48.675Z,100995.09
2022-10-04T11:21:43.627Z,100991.88
2022-10-04T11:24:45.082Z,100991.59
2022-10-04T11:27:30.517Z,100987.88
2022-10-04T11:30:23.563Z,101003.25
2022-10-04T11:33:34.850Z,100999.09
2022-10-04T11:36:29.397Z,101002.66
2022-10-04T11:39:26.896Z,101000.44
2022-10-04T11:41:57.408Z,101000.44
2022-10-04T11:44:47.578Z,101003.22
2022-10-04T11:47:29.963Z,100991.59
2022-10-04T11:50:20.538Z,100999.78
2022-10-04T11:53:26.336Z,100999.66
2022-10-04T11:56:10.234Z,100987.72
2022-10-04T11:58:54.394Z,101002.53
2022-10-04T12:02:00.105Z,100995.66
2022-10-04T12:05:01.350Z,101011.25
2022-10-04T12:07:40.508Z,101016.78
2022-10-04T12:10:23.105Z,101017.50
2022-10-04T12:13:17.397Z,101020.94
2022-10-04T12:16:03.268Z,101022.75
2022-10-04T12:19:13.606Z,101018.03
2022-10-04T12:21:52.566Z,101013.84
2022-10-04T12:25:03.208Z,101018.28
2022-10-04T12:28:16.071Z,101015.97
2022-10-04T12:31:08.712Z,101017.94
2022-10-04T12:33:44.733Z,101018.34
2022-10-04T12:36:28.317Z,101017.63
2022-10-04T12:39:12.492Z,101015.00
2022-10-04T12:41:52.116Z,101012.53
2022-10-04T12:44:36.074Z,101015.78
2022-10-04T12:47:40.417Z,101011.47
2022-10-04T12:50:18.813Z,101012.38
2022-10-04T12:52:55.495Z,101016.75
2022-10-04T12:55:42.755Z,101014.09
2022-10-04T12:58:22.873Z,101021.75
2022-10-04T13:00:57.791Z,101019.25
2022-10-04T13:03:40.295Z,101019.50
2022-10-04T13:06:21.751Z,101014.59
2022-10-04T13:09:08.625Z,101019.75
2022-10-04T13:11:56.324Z,101016.50
2022-10-04T13:14:46.366Z,101021.47
2022-10-04T13:17:34.735Z,101011.16
2022-10-04T13:20:35.853Z,101021.38
2022-10-04T13:23:08.932Z,101003.41
2022-10-04T13:25:46.466Z,101016.63
2022-10-04T13:28:24.984Z,101006.28
2022-10-04T13:31:01.654Z,101015.78
2022-10-04T13:33:43.556Z,101010.06
2022-10-04T13:36:17.790Z,101021.75
2022-10-04T13:39:07.495Z,101020.84
2022-10-04T13:41:49.654Z,101016.25
2022-10-04T13:44:27.832Z,101018.09
2022-10-04T13:47:17.581Z,101024.84
2022-10-04T13:50:04.177Z,101017.59
2022-10-04T13:53:01.016Z,101023.59
2022-10-04T13:55:54.386Z,101023.09
2022-10-04T13:58:36.652Z,101029.44
2022-10-04T14:01:34.219Z,101026.81
2022-10-04T14:04:14.921Z,101023.97
2022-10-04T14:07:31.916Z,101038.41
2022-10-04T14:10:22.370Z,101028.00
2022-10-04T14:13:34.163Z,101037.19
2022-10-04T14:16:19.237Z,101034.00
2022-10-04T14:19:21.514Z,101043.28
2022-10-04T14:22:23.149Z,101036.38
2022-10-04T14:25:21.573Z,101039.69
2022-10-04T14:28:16.865Z,101044.25
2022-10-04T14:31:04.445Z,101033.88
2022-10-04T14:33:57.898Z,101031.59
2022-10-04T14:36:54.274Z,101039.47
2022-10-04T14:39:51.462Z,101039.94
2022-10-04T14:42:45.722Z,101049.13
2022-10-04T14:45:32.971Z,101051.13
2022-10-04T14:48:29.614Z,101057.34
2022-10-04T14:51:15.970Z,101052.25
2022-10-04T14:53:56.030Z,101059.41
2022-10-04T14:56:46.919Z,101066.78
2022-10-04T14:59:36.655Z,101059.50
2022-10-04T15:02:36.417Z,101063.31
2022-10-04T15:05:28.712Z,101067.28
2022-10-04T15:08:13.526Z,101073.34
2022-10-04T15:10:51.105Z,101079.78
2022-10-04T15:13:27.164Z,101075.38
2022-10-04T15:16:14.264Z,101090.63
2022-10-04T15:18:53.809Z,101081.13
2022-10-04T15:21:36.483Z,101086.47
2022-10-04T15:24:28.650Z,101090.28
2022-10-04T15:27:29.300Z,101091.97
2022-10-04T15:30:10.907Z,101101.63
2022-10-04T15:32:46.677Z,101106.53
2022-10-04T15:35:25.542Z,101111.03
2022-10-04T15:38:00.738Z,101107.66
2022-10-04T15:40:55.598Z,101115.19
2022-10-04T15:43:30.954Z,101122.47
2022-10-04T15:46:40.545Z,101119.47
2022-10-04T15:49:37.922Z,101117.69
2022-10-04T15:52:16.195Z,101124.22
2022-10-04T15:55:04.264Z,101123.25
2022-10-04T15:57:51.479Z,101125.50
2022-10-04T16:00:23.262Z,101130.59
2022-10-04T16:03:14.060Z,101125.53
2022-10-04T16:05:47.950Z,101137.31
2022-10-04T16:08:30.625Z,101139.66
2022-10-04T16:11:10.915Z,101145.09
2022-10-04T16:14:03.934Z,101150.72
2022-10-04T16:16:58.352Z,101152.97
2022-10-04T16:19:48.351Z,101154.47
2022-10-04T16:22:20.145Z,101153.31
2022-10-04T16:24:51.462Z,101160.13
2022-10-04T16:27:51.719Z,101168.34
2022-10-04T16:30:29.015Z,101170.31
2022-10-04T16:33:13.657Z,101174.72
2022-10-04T16:35:46.662Z,101183.72
2022-10-04T16:38:26.352Z,101177.88
2022-10-04T16:41:11.428Z,101186.59
2022-10-04T16:43:52.830Z,101183.44
2022-10-04T16:46:30.804Z,101184.38
2022-10-04T16:49:02.258Z,101189.00
2022-10-04T16:52:05.439Z,101183.03
2022-10-04T16:54:48.639Z,101187.97
2022-10-04T16:57:23.013Z,101196.63
2022-10-04T16:59:54.443Z,101199.16
2022-10-04T17:02:38.005Z,101197.72
2022-10-04T17:05:22.857Z,101205.47
2022-10-04T17:08:17.642Z,101203.97
2022-10-04T17:11:10.045Z,101198.75
2022-10-04T17:13:56.370Z,101201.38
2022-10-04T17:16:31.986Z,101206.94
2022-10-04T17:19:26.037Z,101218.84
2022-10-04T17:22:06.907Z,101226.19
2022-10-04T17:24:43.373Z,101221.97
2022-10-04T17:27:27.758Z,101234.09
2022-10-04T17:30:16.847Z,101236.41
2022-10-04T17:32:55.298Z,101230.75
2022-10-04T17:36:14.418Z,101232.25
2022-10-04T17:38:49.255Z,101251.13
2022-10-04T17:41:22.334Z,101249.84
2022-10-04T17:44:23.718Z,101262.56
2022-10-04T17:47:01.810Z,101265.97
2022-10-04T17:49:57.212Z,101278.31
2022-10-04T17:52:50.481Z,101272.56
2022-10-04T17:55:28.789Z,101274.22
2022-10-04T17:58:04.220Z,101280.50
2022-10-04T18:03:39.947Z,101282.06
2022-10-04T18:06:18.801Z,101288.13
2022-10-04T18:08:53.424Z,101293.19
2022-10-04T18:11:29.733Z,101289.59
2022-10-04T18:14:02.549Z,101299.88
2022-10-04T18:16:32.912Z,101299.88
2022-10-04T18:19:37.209Z,101299.69
2022-10-04T18:22:15.153Z,101294.69
2022-10-04T18:24:44.865Z,101294.56
2022-10-04T18:27:19.718Z,101300.28
2022-10-04T18:30:00.555Z,101298.41
2022-10-04T18:32:36.279Z,101306.25
2022-10-04T18:35:22.665Z,101305.41
2022-10-04T18:37:51.053Z,101309.03
2022-10-04T18:40:21.499Z,101314.56
2022-10-04T18:42:57.170Z,101309.59
2022-10-04T18:45:28.447Z,101318.75
2022-10-04T18:47:57.928Z,101317.16
2022-10-04T18:50:35.322Z,101315.38
2022-10-04T18:53:28.105Z,101323.22
2022-10-04T18:56:01.099Z,101323.22
2022-10-04T18:59:15.255Z,101321.53
2022-10-04T19:02:06.704Z,101335.53
2022-10-04T19:05:02.141Z,101334.06
2022-10-04T19:07:41.264Z,101321.88
2022-10-04T19:10:23.835Z,101333.06
2022-10-04T19:13:10.931Z,101334.00
2022-10-04T19:15:59.767Z,101338.19
2022-10-04T19:18:41.767Z,101333.81
2022-10-04T19:21:20.612Z,101339.97
2022-10-04T19:24:03.315Z,101341.81
2022-10-04T19:26:36.014Z,101339.66
2022-10-04T19:29:14.128Z,101346.78
2022-10-04T19:31:50.420Z,101343.78
2022-10-04T19:34:23.935Z,101340.59
2022-10-04T19:37:00.482Z,101346.56
2022-10-04T19:39:47.453Z,101346.34
2022-10-04T19:42:19.267Z,101348.22
2022-10-04T19:44:59.960Z,101351.25
2022-10-04T19:47:40.152Z,101349.16
2022-10-04T19:50:17.873Z,101358.06
2022-10-04T19:52:53.409Z,101370.09
2022-10-04T19:55:27.617Z,101359.00
2022-10-04T19:58:03.919Z,101367.66
2022-10-04T20:00:33.178Z,101369.41
2022-10-04T20:03:01.106Z,101374.47
2022-10-04T20:05:29.122Z,101377.00
2022-10-04T20:08:01.611Z,101386.75
2022-10-04T20:10:34.677Z,101393.28
2022-10-04T20:13:21.383Z,101387.75
2022-10-04T20:15:51.445Z,101390.50
2022-10-04T20:18:59.971Z,101390.34
2022-10-04T20:21:33.321Z,101392.94
2022-10-04T20:24:01.757Z,101399.84
2022-10-04T20:26:55.994Z,101399.66
2022-10-04T20:30:06.599Z,101400.03
2022-10-04T20:32:57.395Z,101398.34
2022-10-04T20:36:01.599Z,101404.47
2022-10-04T20:38:59.520Z,101401.63
2022-10-04T20:42:20.466Z,101404.88
2022-10-04T20:44:59.958Z,101402.53
2022-10-04T20:47:47.853Z,101397.41
2022-10-04T20:50:26.741Z,101413.63
2022-10-04T20:52:57.231Z,101413.28
2022-10-04T20:55:28.413Z,101416.81
2022-10-04T20:58:01.193Z,101423.00
2022-10-04T21:00:33.909Z,101415.88
2022-10-04T21:03:10.128Z,101419.31
2022-10-04T21:05:38.872Z,101427.38
2022-10-04T21:08:21.427Z,101426.09
2022-10-04T21:11:20.044Z,101437.22
2022-10-04T21:14:00.807Z,101445.69
2022-10-04T21:16:41.032Z,101432.91
2022-10-04T21:19:31.655Z,101434.91
2022-10-04T21:22:00.564Z,101432.47
2022-10-04T21:24:34.937Z,101441.06
2022-10-04T21:27:03.658Z,101439.91
2022-10-04T21:29:33.294Z,101439.81
2022-10-04T21:32:01.366Z,101445.44
2022-10-04T21:34:51.890Z,101445.97
2022-10-04T21:37:17.885Z,101447.63
2022-10-04T21:39:46.002Z,101457.47
2022-10-04T21:42:13.966Z,101463.78
2022-10-04T21:44:43.322Z,101457.38
2022-10-04T21:47:11.277Z,101466.81
2022-10-04T21:49:39.180Z,101465.31
2022-10-04T21:52:07.686Z,101466.75
2022-10-04T21:54:35.885Z,101463.53
2022-10-04T21:57:03.833Z,101474.31
2022-10-04T21:59:31.769Z,101468.06
2022-10-04T22:02:01.146Z,101478.50
2022-10-04T22:04:29.150Z,101484.56
2022-10-04T22:06:57.065Z,101467.34
2022-10-04T22:09:24.986Z,101479.06
2022-10-04T22:11:52.900Z,101480.19
2022-10-04T22:14:20.815Z,101481.88
2022-10-04T22:16:49.136Z,101487.09
2022-10-04T22:19:19.001Z,101484.25
2022-10-04T22:21:46.925Z,101456.97
2022-10-04T22:24:18.731Z,101490.81
2022-10-04T22:26:47.341Z,101501.84
2022-10-04T22:29:16.803Z,101504.13
2022-10-04T22:31:47.837Z,101504.22
2022-10-04T22:34:19.360Z,101505.91
2022-10-04T22:36:49.163Z,101501.16
2022-10-04T22:39:19.738Z,101505.22
2022-10-04T22:41:49.453Z,101495.75
2022-10-04T22:44:19.775Z,101500.91
2022-10-04T22:46:52.621Z,101498.16
2022-10-04T22:49:25.142Z,101505.19
2022-10-04T22:51:54.949Z,101507.41
2022-10-04T22:54:25.429Z,101512.72
2022-10-04T22:56:54.357Z,101520.22
2022-10-04T22:59:28.212Z,101514.09
2022-10-04T23:01:56.247Z,101513.78
2022-10-04T23:04:26.870Z,101510.56
2022-10-04T23:06:54.983Z,101523.13
2022-10-04T23:09:22.898Z,101520.28
2022-10-04T23:11:50.843Z,101523.53
2022-10-04T23:14:18.761Z,101526.50
2022-10-04T23:16:47.480Z,101528.09
2022-10-04T23:19:18.871Z,101537.19
2022-10-04T23:21:49.883Z,101525.81
2022-10-04T23:24:19.788Z,101533.41
2022-10-04T23:26:50.050Z,101527.44
2022-10-04T23:29:20.060Z,101526.88
2022-10-04T23:31:49.824Z,101520.28
2022-10-04T23:34:21.004Z,101537.19
2022-10-04T23:36:50.386Z,101531.41
2022-10-04T23:39:24.759Z,101540.56
2022-10-04T23:41:54.061Z,101544.56
2022-10-04T23:44:23.851Z,101542.97
2022-10-04T23:46:52.497Z,101546.09
2022-10-04T23:49:21.461Z,101556.97
2022-10-04T23:51:56.568Z,101558.78
2022-10-04T23:54:24.643Z,101558.78
2022-10-04T23:56:52.763Z,101563.22
2022-10-04T23:59:23.406Z,101556.50
